sensor_id;sensor_type;location;lat;lon;timestamp;P1;durP1;ratioP1;P2;durP2;ratioP2
3133;SDS011;1577;49.912;10.924;2023-04-15T00:00:36;18.97;;;8.13;;
3133;SDS011;1577;49.912;10.924;2023-04-15T00:03:02;19.43;;;8.27;;
3133;SDS011;1577;49.912;10.924;2023-04-15T00:05:29;19.17;;;7.47;;
3133;SDS011;1577;49.912;10.924;2023-04-15T00:07:55;19.57;;;7.90;;
3133;SDS011;1577;49.912;10.924;2023-04-15T00:10:22;20.87;;;7.90;;
3133;SDS011;1577;49.912;10.924;2023-04-15T00:12:48;19.20;;;8.03;;
3133;SDS011;1577;49.912;10.924;2023-04-15T00:15:14;19.30;;;7.80;;
3133;SDS011;1577;49.912;10.924;2023-04-15T00:17:40;19.57;;;8.07;;
3133;SDS011;1577;49.912;10.924;2023-04-15T00:20:06;19.30;;;7.50;;
3133;SDS011;1577;49.912;10.924;2023-04-15T00:22:32;20.07;;;8.60;;
3133;SDS011;1577;49.912;10.924;2023-04-15T00:24:57;19.43;;;6.90;;
3133;SDS011;1577;49.912;10.924;2023-04-15T00:27:23;17.97;;;6.50;;
3133;SDS011;1577;49.912;10.924;2023-04-15T00:29:48;20.00;;;7.00;;
3133;SDS011;1577;49.912;10.924;2023-04-15T00:32:14;20.20;;;6.77;;
3133;SDS011;1577;49.912;10.924;2023-04-15T00:34:40;19.90;;;7.40;;
3133;SDS011;1577;49.912;10.924;2023-04-15T00:37:06;18.10;;;6.90;;
3133;SDS011;1577;49.912;10.924;2023-04-15T00:39:31;17.63;;;6.80;;
3133;SDS011;1577;49.912;10.924;2023-04-15T00:41:57;17.70;;;7.00;;
3133;SDS011;1577;49.912;10.924;2023-04-15T00:44:23;17.23;;;6.73;;
3133;SDS011;1577;49.912;10.924;2023-04-15T00:46:50;18.10;;;7.00;;
3133;SDS011;1577;49.912;10.924;2023-04-15T00:49:16;18.60;;;7.80;;
3133;SDS011;1577;49.912;10.924;2023-04-15T00:51:43;18.73;;;7.00;;
3133;SDS011;1577;49.912;10.924;2023-04-15T00:54:08;19.70;;;6.40;;
3133;SDS011;1577;49.912;10.924;2023-04-15T00:56:34;21.30;;;7.67;;
3133;SDS011;1577;49.912;10.924;2023-04-15T00:59:02;25.63;;;7.90;;
3133;SDS011;1577;49.912;10.924;2023-04-15T01:01:27;19.70;;;6.87;;
3133;SDS011;1577;49.912;10.924;2023-04-15T01:03:56;19.73;;;6.73;;
3133;SDS011;1577;49.912;10.924;2023-04-15T01:06:22;18.60;;;5.80;;
3133;SDS011;1577;49.912;10.924;2023-04-15T01:08:48;18.30;;;6.67;;
3133;SDS011;1577;49.912;10.924;2023-04-15T01:11:14;18.10;;;6.60;;
3133;SDS011;1577;49.912;10.924;2023-04-15T01:13:41;18.77;;;6.13;;
3133;SDS011;1577;49.912;10.924;2023-04-15T01:16:07;18.17;;;6.20;;
3133;SDS011;1577;49.912;10.924;2023-04-15T01:18:33;20.33;;;5.87;;
3133;SDS011;1577;49.912;10.924;2023-04-15T01:21:01;19.40;;;6.10;;
3133;SDS011;1577;49.912;10.924;2023-04-15T01:23:28;17.43;;;5.50;;
3133;SDS011;1577;49.912;10.924;2023-04-15T01:25:54;18.10;;;6.73;;
3133;SDS011;1577;49.912;10.924;2023-04-15T01:28:21;21.57;;;6.47;;
3133;SDS011;1577;49.912;10.924;2023-04-15T01:30:47;18.30;;;6.10;;
3133;SDS011;1577;49.912;10.924;2023-04-15T01:33:13;16.30;;;5.77;;
3133;SDS011;1577;49.912;10.924;2023-04-15T01:35:38;19.43;;;5.90;;
3133;SDS011;1577;49.912;10.924;2023-04-15T01:38:05;15.57;;;5.00;;
3133;SDS011;1577;49.912;10.924;2023-04-15T01:40:32;17.17;;;5.63;;
3133;SDS011;1577;49.912;10.924;2023-04-15T01:42:59;20.03;;;6.57;;
3133;SDS011;1577;49.912;10.924;2023-04-15T01:45:25;16.47;;;6.07;;
3133;SDS011;1577;49.912;10.924;2023-04-15T01:47:51;17.13;;;6.00;;
3133;SDS011;1577;49.912;10.924;2023-04-15T01:50:17;15.80;;;5.40;;
3133;SDS011;1577;49.912;10.924;2023-04-15T01:52:43;20.53;;;6.00;;
3133;SDS011;1577;49.912;10.924;2023-04-15T01:55:09;19.30;;;6.20;;
3133;SDS011;1577;49.912;10.924;2023-04-15T01:57:35;21.20;;;6.80;;
3133;SDS011;1577;49.912;10.924;2023-04-15T02:00:01;16.67;;;5.80;;
3133;SDS011;1577;49.912;10.924;2023-04-15T02:02:28;17.80;;;6.47;;
3133;SDS011;1577;49.912;10.924;2023-04-15T02:04:54;22.77;;;7.00;;
3133;SDS011;1577;49.912;10.924;2023-04-15T02:07:20;18.20;;;6.00;;
3133;SDS011;1577;49.912;10.924;2023-04-15T02:09:45;18.50;;;6.60;;
3133;SDS011;1577;49.912;10.924;2023-04-15T02:12:11;17.87;;;5.80;;
3133;SDS011;1577;49.912;10.924;2023-04-15T02:14:37;18.13;;;6.20;;
3133;SDS011;1577;49.912;10.924;2023-04-15T02:17:03;17.93;;;6.70;;
3133;SDS011;1577;49.912;10.924;2023-04-15T02:19:32;18.00;;;7.00;;
3133;SDS011;1577;49.912;10.924;2023-04-15T02:21:59;17.53;;;6.60;;
3133;SDS011;1577;49.912;10.924;2023-04-15T02:24:26;17.57;;;5.50;;
3133;SDS011;1577;49.912;10.924;2023-04-15T02:26:52;18.83;;;7.07;;
3133;SDS011;1577;49.912;10.924;2023-04-15T02:29:18;18.30;;;6.90;;
3133;SDS011;1577;49.912;10.924;2023-04-15T02:31:43;18.97;;;6.83;;
3133;SDS011;1577;49.912;10.924;2023-04-15T02:34:09;21.20;;;7.17;;
3133;SDS011;1577;49.912;10.924;2023-04-15T02:36:35;18.43;;;6.27;;
3133;SDS011;1577;49.912;10.924;2023-04-15T02:39:01;18.40;;;7.60;;
3133;SDS011;1577;49.912;10.924;2023-04-15T02:41:28;18.23;;;6.90;;
3133;SDS011;1577;49.912;10.924;2023-04-15T02:43:54;21.47;;;7.37;;
3133;SDS011;1577;49.912;10.924;2023-04-15T02:46:20;19.27;;;6.70;;
3133;SDS011;1577;49.912;10.924;2023-04-15T02:48:46;18.07;;;7.37;;
3133;SDS011;1577;49.912;10.924;2023-04-15T02:51:13;18.73;;;6.30;;
3133;SDS011;1577;49.912;10.924;2023-04-15T02:53:43;20.10;;;8.40;;
3133;SDS011;1577;49.912;10.924;2023-04-15T02:56:10;17.40;;;6.80;;
3133;SDS011;1577;49.912;10.924;2023-04-15T02:58:36;18.50;;;7.07;;
3133;SDS011;1577;49.912;10.924;2023-04-15T03:01:04;16.87;;;6.67;;
3133;SDS011;1577;49.912;10.924;2023-04-15T03:03:29;16.90;;;6.60;;
3133;SDS011;1577;49.912;10.924;2023-04-15T03:05:55;18.67;;;7.43;;
3133;SDS011;1577;49.912;10.924;2023-04-15T03:08:20;16.53;;;6.50;;
3133;SDS011;1577;49.912;10.924;2023-04-15T03:10:46;18.00;;;6.83;;
3133;SDS011;1577;49.912;10.924;2023-04-15T03:13:12;18.23;;;6.30;;
3133;SDS011;1577;49.912;10.924;2023-04-15T03:15:38;18.23;;;7.20;;
3133;SDS011;1577;49.912;10.924;2023-04-15T03:18:03;17.97;;;7.13;;
3133;SDS011;1577;49.912;10.924;2023-04-15T03:20:29;18.33;;;6.60;;
3133;SDS011;1577;49.912;10.924;2023-04-15T03:22:54;18.63;;;6.80;;
3133;SDS011;1577;49.912;10.924;2023-04-15T03:25:20;18.27;;;6.13;;
3133;SDS011;1577;49.912;10.924;2023-04-15T03:27:45;17.07;;;6.30;;
3133;SDS011;1577;49.912;10.924;2023-04-15T03:30:11;17.50;;;6.60;;
3133;SDS011;1577;49.912;10.924;2023-04-15T03:32:37;17.97;;;6.80;;
3133;SDS011;1577;49.912;10.924;2023-04-15T03:35:03;17.80;;;6.70;;
3133;SDS011;1577;49.912;10.924;2023-04-15T03:37:29;21.30;;;6.40;;
3133;SDS011;1577;49.912;10.924;2023-04-15T03:39:55;22.60;;;7.90;;
3133;SDS011;1577;49.912;10.924;2023-04-15T03:42:20;18.73;;;7.17;;
3133;SDS011;1577;49.912;10.924;2023-04-15T03:44:46;17.60;;;6.83;;
3133;SDS011;1577;49.912;10.924;2023-04-15T03:47:11;17.50;;;6.60;;
3133;SDS011;1577;49.912;10.924;2023-04-15T03:49:37;17.03;;;6.50;;
3133;SDS011;1577;49.912;10.924;2023-04-15T03:52:02;16.30;;;6.67;;
3133;SDS011;1577;49.912;10.924;2023-04-15T03:54:28;17.87;;;6.27;;
3133;SDS011;1577;49.912;10.924;2023-04-15T03:56:54;16.20;;;6.60;;
3133;SDS011;1577;49.912;10.924;2023-04-15T03:59:20;18.70;;;7.50;;
3133;SDS011;1577;49.912;10.924;2023-04-15T04:01:46;15.57;;;6.20;;
3133;SDS011;1577;49.912;10.924;2023-04-15T04:04:12;19.63;;;6.40;;
3133;SDS011;1577;49.912;10.924;2023-04-15T04:06:37;22.63;;;7.10;;
3133;SDS011;1577;49.912;10.924;2023-04-15T04:09:03;17.00;;;6.33;;
3133;SDS011;1577;49.912;10.924;2023-04-15T04:11:29;18.87;;;7.10;;
3133;SDS011;1577;49.912;10.924;2023-04-15T04:13:54;17.50;;;7.30;;
3133;SDS011;1577;49.912;10.924;2023-04-15T04:16:20;16.57;;;6.83;;
3133;SDS011;1577;49.912;10.924;2023-04-15T04:18:45;17.70;;;7.17;;
3133;SDS011;1577;49.912;10.924;2023-04-15T04:21:11;16.00;;;6.43;;
3133;SDS011;1577;49.912;10.924;2023-04-15T04:23:37;20.03;;;7.87;;
3133;SDS011;1577;49.912;10.924;2023-04-15T04:26:02;18.30;;;7.20;;
3133;SDS011;1577;49.912;10.924;2023-04-15T04:28:28;18.53;;;7.37;;
3133;SDS011;1577;49.912;10.924;2023-04-15T04:30:54;18.70;;;8.27;;
3133;SDS011;1577;49.912;10.924;2023-04-15T04:33:20;15.77;;;6.03;;
3133;SDS011;1577;49.912;10.924;2023-04-15T04:35:46;18.20;;;8.07;;
3133;SDS011;1577;49.912;10.924;2023-04-15T04:38:11;16.53;;;6.87;;
3133;SDS011;1577;49.912;10.924;2023-04-15T04:40:37;16.43;;;6.30;;
3133;SDS011;1577;49.912;10.924;2023-04-15T04:43:03;16.07;;;6.67;;
3133;SDS011;1577;49.912;10.924;2023-04-15T04:45:29;15.40;;;6.83;;
3133;SDS011;1577;49.912;10.924;2023-04-15T04:47:55;15.23;;;6.63;;
3133;SDS011;1577;49.912;10.924;2023-04-15T04:50:20;16.40;;;6.40;;
3133;SDS011;1577;49.912;10.924;2023-04-15T04:52:46;22.33;;;7.27;;
3133;SDS011;1577;49.912;10.924;2023-04-15T04:55:12;15.80;;;6.57;;
3133;SDS011;1577;49.912;10.924;2023-04-15T04:57:37;19.20;;;7.87;;
3133;SDS011;1577;49.912;10.924;2023-04-15T05:00:06;15.17;;;6.63;;
3133;SDS011;1577;49.912;10.924;2023-04-15T05:02:32;15.77;;;6.13;;
3133;SDS011;1577;49.912;10.924;2023-04-15T05:04:58;16.90;;;6.47;;
3133;SDS011;1577;49.912;10.924;2023-04-15T05:07:24;17.13;;;6.40;;
3133;SDS011;1577;49.912;10.924;2023-04-15T05:09:49;16.70;;;7.10;;
3133;SDS011;1577;49.912;10.924;2023-04-15T05:12:15;16.43;;;6.33;;
3133;SDS011;1577;49.912;10.924;2023-04-15T05:14:42;14.30;;;6.20;;
3133;SDS011;1577;49.912;10.924;2023-04-15T05:17:08;14.07;;;6.23;;
3133;SDS011;1577;49.912;10.924;2023-04-15T05:19:33;16.73;;;6.57;;
3133;SDS011;1577;49.912;10.924;2023-04-15T05:21:59;14.30;;;6.30;;
3133;SDS011;1577;49.912;10.924;2023-04-15T05:24:25;15.00;;;7.07;;
3133;SDS011;1577;49.912;10.924;2023-04-15T05:26:51;14.57;;;6.80;;
3133;SDS011;1577;49.912;10.924;2023-04-15T05:29:16;17.53;;;7.23;;
3133;SDS011;1577;49.912;10.924;2023-04-15T05:31:42;16.80;;;6.63;;
3133;SDS011;1577;49.912;10.924;2023-04-15T05:34:08;14.63;;;6.83;;
3133;SDS011;1577;49.912;10.924;2023-04-15T05:36:35;19.13;;;7.27;;
3133;SDS011;1577;49.912;10.924;2023-04-15T05:39:01;12.77;;;6.00;;
3133;SDS011;1577;49.912;10.924;2023-04-15T05:41:26;13.90;;;6.47;;
3133;SDS011;1577;49.912;10.924;2023-04-15T05:43:52;16.20;;;6.83;;
3133;SDS011;1577;49.912;10.924;2023-04-15T05:46:18;12.30;;;5.53;;
3133;SDS011;1577;49.912;10.924;2023-04-15T05:48:43;13.13;;;6.00;;
3133;SDS011;1577;49.912;10.924;2023-04-15T05:51:09;13.10;;;6.50;;
3133;SDS011;1577;49.912;10.924;2023-04-15T05:53:35;12.07;;;6.23;;
3133;SDS011;1577;49.912;10.924;2023-04-15T05:56:01;10.70;;;6.00;;
3133;SDS011;1577;49.912;10.924;2023-04-15T05:58:26;13.43;;;6.07;;
3133;SDS011;1577;49.912;10.924;2023-04-15T06:00:52;13.10;;;5.83;;
3133;SDS011;1577;49.912;10.924;2023-04-15T06:03:17;11.87;;;5.97;;
3133;SDS011;1577;49.912;10.924;2023-04-15T06:05:43;12.00;;;6.33;;
3133;SDS011;1577;49.912;10.924;2023-04-15T06:08:09;10.90;;;5.63;;
3133;SDS011;1577;49.912;10.924;2023-04-15T06:10:35;13.97;;;5.93;;
3133;SDS011;1577;49.912;10.924;2023-04-15T06:13:04;12.97;;;5.10;;
3133;SDS011;1577;49.912;10.924;2023-04-15T06:15:30;12.67;;;6.40;;
3133;SDS011;1577;49.912;10.924;2023-04-15T06:17:56;10.83;;;5.50;;
3133;SDS011;1577;49.912;10.924;2023-04-15T06:20:21;14.27;;;6.23;;
3133;SDS011;1577;49.912;10.924;2023-04-15T06:22:48;12.20;;;6.00;;
3133;SDS011;1577;49.912;10.924;2023-04-15T06:25:13;13.43;;;7.30;;
3133;SDS011;1577;49.912;10.924;2023-04-15T06:27:39;17.27;;;8.30;;
3133;SDS011;1577;49.912;10.924;2023-04-15T06:30:05;14.70;;;7.77;;
3133;SDS011;1577;49.912;10.924;2023-04-15T06:32:32;13.50;;;6.97;;
3133;SDS011;1577;49.912;10.924;2023-04-15T06:34:57;11.53;;;6.00;;
3133;SDS011;1577;49.912;10.924;2023-04-15T06:37:23;12.30;;;5.83;;
3133;SDS011;1577;49.912;10.924;2023-04-15T06:39:49;10.40;;;5.63;;
3133;SDS011;1577;49.912;10.924;2023-04-15T06:42:14;13.53;;;7.10;;
3133;SDS011;1577;49.912;10.924;2023-04-15T06:44:40;11.50;;;7.07;;
3133;SDS011;1577;49.912;10.924;2023-04-15T06:47:06;13.33;;;6.30;;
3133;SDS011;1577;49.912;10.924;2023-04-15T06:49:33;20.50;;;11.60;;
3133;SDS011;1577;49.912;10.924;2023-04-15T06:51:59;50.40;;;30.67;;
3133;SDS011;1577;49.912;10.924;2023-04-15T06:54:24;50.37;;;34.87;;
3133;SDS011;1577;49.912;10.924;2023-04-15T06:56:50;31.53;;;21.67;;
3133;SDS011;1577;49.912;10.924;2023-04-15T06:59:16;19.00;;;10.23;;
3133;SDS011;1577;49.912;10.924;2023-04-15T07:01:43;14.47;;;8.17;;
3133;SDS011;1577;49.912;10.924;2023-04-15T07:04:08;11.40;;;6.10;;
3133;SDS011;1577;49.912;10.924;2023-04-15T07:06:35;10.77;;;5.60;;
3133;SDS011;1577;49.912;10.924;2023-04-15T07:09:00;15.57;;;8.83;;
3133;SDS011;1577;49.912;10.924;2023-04-15T07:11:27;37.03;;;18.07;;
3133;SDS011;1577;49.912;10.924;2023-04-15T07:13:52;39.17;;;19.97;;
3133;SDS011;1577;49.912;10.924;2023-04-15T07:16:18;20.43;;;9.93;;
3133;SDS011;1577;49.912;10.924;2023-04-15T07:18:43;12.53;;;7.03;;
3133;SDS011;1577;49.912;10.924;2023-04-15T07:21:09;10.60;;;5.77;;
3133;SDS011;1577;49.912;10.924;2023-04-15T07:23:35;11.17;;;6.03;;
3133;SDS011;1577;49.912;10.924;2023-04-15T07:26:01;9.20;;;5.33;;
3133;SDS011;1577;49.912;10.924;2023-04-15T07:28:27;12.50;;;6.77;;
3133;SDS011;1577;49.912;10.924;2023-04-15T07:30:53;10.00;;;6.33;;
3133;SDS011;1577;49.912;10.924;2023-04-15T07:33:19;10.63;;;6.00;;
3133;SDS011;1577;49.912;10.924;2023-04-15T07:35:45;13.90;;;8.20;;
3133;SDS011;1577;49.912;10.924;2023-04-15T07:38:11;14.73;;;6.83;;
3133;SDS011;1577;49.912;10.924;2023-04-15T07:40:37;11.83;;;6.93;;
3133;SDS011;1577;49.912;10.924;2023-04-15T07:43:03;9.23;;;5.63;;
3133;SDS011;1577;49.912;10.924;2023-04-15T07:45:29;11.33;;;6.90;;
3133;SDS011;1577;49.912;10.924;2023-04-15T07:47:55;14.20;;;8.30;;
3133;SDS011;1577;49.912;10.924;2023-04-15T07:50:21;19.47;;;11.30;;
3133;SDS011;1577;49.912;10.924;2023-04-15T07:52:47;16.40;;;9.77;;
3133;SDS011;1577;49.912;10.924;2023-04-15T07:55:17;21.60;;;14.17;;
3133;SDS011;1577;49.912;10.924;2023-04-15T07:57:45;15.83;;;11.07;;
3133;SDS011;1577;49.912;10.924;2023-04-15T08:00:14;16.00;;;12.07;;
3133;SDS011;1577;49.912;10.924;2023-04-15T08:02:40;11.63;;;8.13;;
3133;SDS011;1577;49.912;10.924;2023-04-15T08:05:10;15.90;;;9.40;;
3133;SDS011;1577;49.912;10.924;2023-04-15T08:07:38;14.30;;;7.93;;
3133;SDS011;1577;49.912;10.924;2023-04-15T08:10:04;11.20;;;7.37;;
3133;SDS011;1577;49.912;10.924;2023-04-15T08:12:30;12.23;;;6.70;;
3133;SDS011;1577;49.912;10.924;2023-04-15T08:14:56;13.43;;;7.10;;
3133;SDS011;1577;49.912;10.924;2023-04-15T08:17:21;11.83;;;7.30;;
3133;SDS011;1577;49.912;10.924;2023-04-15T08:19:47;12.90;;;7.57;;
3133;SDS011;1577;49.912;10.924;2023-04-15T08:22:13;10.30;;;6.90;;
3133;SDS011;1577;49.912;10.924;2023-04-15T08:24:39;15.63;;;8.80;;
3133;SDS011;1577;49.912;10.924;2023-04-15T08:27:05;13.13;;;8.70;;
3133;SDS011;1577;49.912;10.924;2023-04-15T08:29:32;13.63;;;8.80;;
3133;SDS011;1577;49.912;10.924;2023-04-15T08:31:58;11.37;;;7.33;;
3133;SDS011;1577;49.912;10.924;2023-04-15T08:34:26;14.47;;;8.03;;
3133;SDS011;1577;49.912;10.924;2023-04-15T08:36:52;12.40;;;7.40;;
3133;SDS011;1577;49.912;10.924;2023-04-15T08:39:17;16.07;;;8.53;;
3133;SDS011;1577;49.912;10.924;2023-04-15T08:42:02;15.47;;;8.43;;
3133;SDS011;1577;49.912;10.924;2023-04-15T08:44:34;16.90;;;9.63;;
3133;SDS011;1577;49.912;10.924;2023-04-15T08:47:03;16.43;;;10.03;;
3133;SDS011;1577;49.912;10.924;2023-04-15T08:49:33;17.37;;;8.40;;
3133;SDS011;1577;49.912;10.924;2023-04-15T08:52:03;14.87;;;9.23;;
3133;SDS011;1577;49.912;10.924;2023-04-15T08:54:29;20.33;;;11.00;;
3133;SDS011;1577;49.912;10.924;2023-04-15T08:56:56;33.70;;;18.47;;
3133;SDS011;1577;49.912;10.924;2023-04-15T08:59:22;30.50;;;16.67;;
3133;SDS011;1577;49.912;10.924;2023-04-15T09:01:51;17.17;;;9.90;;
3133;SDS011;1577;49.912;10.924;2023-04-15T09:04:17;13.47;;;8.20;;
3133;SDS011;1577;49.912;10.924;2023-04-15T09:06:43;13.20;;;6.77;;
3133;SDS011;1577;49.912;10.924;2023-04-15T09:09:08;13.97;;;7.10;;
3133;SDS011;1577;49.912;10.924;2023-04-15T09:11:34;10.57;;;6.10;;
3133;SDS011;1577;49.912;10.924;2023-04-15T09:14:00;9.87;;;5.90;;
3133;SDS011;1577;49.912;10.924;2023-04-15T09:16:26;15.13;;;7.07;;
3133;SDS011;1577;49.912;10.924;2023-04-15T09:18:52;12.30;;;7.20;;
3133;SDS011;1577;49.912;10.924;2023-04-15T09:21:18;10.93;;;6.27;;
3133;SDS011;1577;49.912;10.924;2023-04-15T09:23:57;9.73;;;6.07;;
3133;SDS011;1577;49.912;10.924;2023-04-15T09:26:34;9.50;;;5.80;;
3133;SDS011;1577;49.912;10.924;2023-04-15T09:29:05;11.43;;;5.80;;
3133;SDS011;1577;49.912;10.924;2023-04-15T09:31:32;8.80;;;4.93;;
3133;SDS011;1577;49.912;10.924;2023-04-15T09:33:57;9.37;;;5.10;;
3133;SDS011;1577;49.912;10.924;2023-04-15T09:36:23;10.67;;;6.30;;
3133;SDS011;1577;49.912;10.924;2023-04-15T09:38:53;8.40;;;5.40;;
3133;SDS011;1577;49.912;10.924;2023-04-15T09:41:21;11.63;;;6.30;;
3133;SDS011;1577;49.912;10.924;2023-04-15T09:43:47;10.27;;;6.13;;
3133;SDS011;1577;49.912;10.924;2023-04-15T09:46:13;8.47;;;5.10;;
3133;SDS011;1577;49.912;10.924;2023-04-15T09:48:38;11.43;;;6.57;;
3133;SDS011;1577;49.912;10.924;2023-04-15T09:51:04;8.13;;;5.40;;
3133;SDS011;1577;49.912;10.924;2023-04-15T09:53:31;9.70;;;6.27;;
3133;SDS011;1577;49.912;10.924;2023-04-15T09:55:59;13.63;;;6.23;;
3133;SDS011;1577;49.912;10.924;2023-04-15T09:58:35;9.40;;;5.57;;
3133;SDS011;1577;49.912;10.924;2023-04-15T10:01:03;12.70;;;6.40;;
3133;SDS011;1577;49.912;10.924;2023-04-15T10:03:31;8.43;;;5.40;;
3133;SDS011;1577;49.912;10.924;2023-04-15T10:06:00;11.23;;;7.57;;
3133;SDS011;1577;49.912;10.924;2023-04-15T10:08:27;9.50;;;7.70;;
3133;SDS011;1577;49.912;10.924;2023-04-15T10:10:54;12.00;;;7.97;;
3133;SDS011;1577;49.912;10.924;2023-04-15T10:13:20;9.13;;;6.03;;
3133;SDS011;1577;49.912;10.924;2023-04-15T10:18:18;7.80;;;5.80;;
3133;SDS011;1577;49.912;10.924;2023-04-15T10:20:46;7.70;;;5.53;;
3133;SDS011;1577;49.912;10.924;2023-04-15T10:23:13;10.90;;;6.50;;
3133;SDS011;1577;49.912;10.924;2023-04-15T10:25:39;7.97;;;5.63;;
3133;SDS011;1577;49.912;10.924;2023-04-15T10:28:08;7.80;;;5.17;;
3133;SDS011;1577;49.912;10.924;2023-04-15T10:30:35;8.83;;;4.93;;
3133;SDS011;1577;49.912;10.924;2023-04-15T10:33:01;8.40;;;5.30;;
3133;SDS011;1577;49.912;10.924;2023-04-15T10:35:28;7.20;;;4.90;;
3133;SDS011;1577;49.912;10.924;2023-04-15T10:37:55;7.37;;;5.10;;
3133;SDS011;1577;49.912;10.924;2023-04-15T10:40:27;6.80;;;4.50;;
3133;SDS011;1577;49.912;10.924;2023-04-15T10:43:01;7.03;;;4.07;;
3133;SDS011;1577;49.912;10.924;2023-04-15T10:45:36;6.03;;;4.10;;
3133;SDS011;1577;49.912;10.924;2023-04-15T10:48:02;5.17;;;2.83;;
3133;SDS011;1577;49.912;10.924;2023-04-15T10:50:31;6.07;;;3.80;;
3133;SDS011;1577;49.912;10.924;2023-04-15T10:52:57;5.70;;;3.40;;
3133;SDS011;1577;49.912;10.924;2023-04-15T10:55:24;5.77;;;3.63;;
3133;SDS011;1577;49.912;10.924;2023-04-15T10:57:52;5.60;;;3.40;;
3133;SDS011;1577;49.912;10.924;2023-04-15T11:00:19;3.50;;;2.40;;
3133;SDS011;1577;49.912;10.924;2023-04-15T11:02:52;4.43;;;2.57;;
3133;SDS011;1577;49.912;10.924;2023-04-15T11:08:06;3.20;;;1.90;;
3133;SDS011;1577;49.912;10.924;2023-04-15T11:13:03;2.80;;;1.90;;
3133;SDS011;1577;49.912;10.924;2023-04-15T11:20:34;2.60;;;1.83;;
3133;SDS011;1577;49.912;10.924;2023-04-15T11:23:00;3.57;;;2.43;;
3133;SDS011;1577;49.912;10.924;2023-04-15T11:25:26;3.60;;;2.70;;
3133;SDS011;1577;49.912;10.924;2023-04-15T11:27:53;3.70;;;2.50;;
3133;SDS011;1577;49.912;10.924;2023-04-15T11:30:20;3.27;;;2.73;;
3133;SDS011;1577;49.912;10.924;2023-04-15T11:32:48;3.07;;;2.03;;
3133;SDS011;1577;49.912;10.924;2023-04-15T11:35:15;2.73;;;1.57;;
3133;SDS011;1577;49.912;10.924;2023-04-15T11:37:42;3.27;;;1.80;;
3133;SDS011;1577;49.912;10.924;2023-04-15T11:40:08;3.03;;;1.83;;
3133;SDS011;1577;49.912;10.924;2023-04-15T11:42:34;3.30;;;1.90;;
3133;SDS011;1577;49.912;10.924;2023-04-15T11:45:10;3.47;;;2.23;;
3133;SDS011;1577;49.912;10.924;2023-04-15T11:47:40;4.53;;;2.43;;
3133;SDS011;1577;49.912;10.924;2023-04-15T11:52:54;3.67;;;2.20;;
3133;SDS011;1577;49.912;10.924;2023-04-15T11:55:20;3.43;;;1.80;;
3133;SDS011;1577;49.912;10.924;2023-04-15T11:57:48;3.33;;;2.27;;
3133;SDS011;1577;49.912;10.924;2023-04-15T12:00:15;3.10;;;2.00;;
3133;SDS011;1577;49.912;10.924;2023-04-15T12:02:41;3.13;;;1.90;;
3133;SDS011;1577;49.912;10.924;2023-04-15T12:05:07;4.60;;;3.17;;
3133;SDS011;1577;49.912;10.924;2023-04-15T12:08:18;6.70;;;3.67;;
3133;SDS011;1577;49.912;10.924;2023-04-15T12:10:23;4.80;;;2.90;;
3133;SDS011;1577;49.912;10.924;2023-04-15T12:12:51;2.67;;;1.90;;
3133;SDS011;1577;49.912;10.924;2023-04-15T12:15:17;4.10;;;2.07;;
3133;SDS011;1577;49.912;10.924;2023-04-15T12:17:46;2.93;;;1.70;;
3133;SDS011;1577;49.912;10.924;2023-04-15T12:20:12;2.50;;;1.50;;
3133;SDS011;1577;49.912;10.924;2023-04-15T12:22:38;2.20;;;1.60;;
3133;SDS011;1577;49.912;10.924;2023-04-15T12:25:04;2.57;;;1.10;;
3133;SDS011;1577;49.912;10.924;2023-04-15T12:27:30;3.87;;;1.93;;
3133;SDS011;1577;49.912;10.924;2023-04-15T12:30:03;2.27;;;1.30;;
3133;SDS011;1577;49.912;10.924;2023-04-15T12:32:29;3.43;;;1.73;;
3133;SDS011;1577;49.912;10.924;2023-04-15T12:34:59;2.07;;;1.40;;
3133;SDS011;1577;49.912;10.924;2023-04-15T12:37:25;2.17;;;1.20;;
3133;SDS011;1577;49.912;10.924;2023-04-15T12:39:51;1.83;;;1.20;;
3133;SDS011;1577;49.912;10.924;2023-04-15T12:42:18;3.00;;;1.43;;
3133;SDS011;1577;49.912;10.924;2023-04-15T12:44:44;2.10;;;1.57;;
3133;SDS011;1577;49.912;10.924;2023-04-15T12:47:10;8.30;;;3.13;;
3133;SDS011;1577;49.912;10.924;2023-04-15T12:49:36;2.40;;;1.67;;
3133;SDS011;1577;49.912;10.924;2023-04-15T12:52:03;2.10;;;1.50;;
3133;SDS011;1577;49.912;10.924;2023-04-15T12:54:29;3.53;;;2.07;;
3133;SDS011;1577;49.912;10.924;2023-04-15T12:56:55;2.77;;;1.60;;
3133;SDS011;1577;49.912;10.924;2023-04-15T12:59:21;1.80;;;1.30;;
3133;SDS011;1577;49.912;10.924;2023-04-15T13:01:50;3.20;;;1.53;;
3133;SDS011;1577;49.912;10.924;2023-04-15T13:04:17;2.53;;;1.40;;
3133;SDS011;1577;49.912;10.924;2023-04-15T13:06:43;2.60;;;1.60;;
3133;SDS011;1577;49.912;10.924;2023-04-15T13:09:09;4.57;;;2.67;;
3133;SDS011;1577;49.912;10.924;2023-04-15T13:11:34;5.70;;;2.30;;
3133;SDS011;1577;49.912;10.924;2023-04-15T13:14:01;3.00;;;1.50;;
3133;SDS011;1577;49.912;10.924;2023-04-15T13:16:28;5.30;;;2.97;;
3133;SDS011;1577;49.912;10.924;2023-04-15T13:18:54;7.60;;;3.03;;
3133;SDS011;1577;49.912;10.924;2023-04-15T13:21:20;2.60;;;1.70;;
3133;SDS011;1577;49.912;10.924;2023-04-15T13:23:45;4.70;;;2.57;;
3133;SDS011;1577;49.912;10.924;2023-04-15T13:26:13;5.80;;;2.70;;
3133;SDS011;1577;49.912;10.924;2023-04-15T13:28:39;3.30;;;1.93;;
3133;SDS011;1577;49.912;10.924;2023-04-15T13:31:04;2.33;;;1.20;;
3133;SDS011;1577;49.912;10.924;2023-04-15T13:33:30;3.53;;;2.00;;
3133;SDS011;1577;49.912;10.924;2023-04-15T13:35:55;2.93;;;1.50;;
3133;SDS011;1577;49.912;10.924;2023-04-15T13:38:21;3.37;;;1.83;;
3133;SDS011;1577;49.912;10.924;2023-04-15T13:40:49;4.50;;;2.57;;
3133;SDS011;1577;49.912;10.924;2023-04-15T13:43:14;3.60;;;1.80;;
3133;SDS011;1577;49.912;10.924;2023-04-15T13:45:41;2.97;;;1.60;;
3133;SDS011;1577;49.912;10.924;2023-04-15T13:48:07;2.83;;;1.73;;
3133;SDS011;1577;49.912;10.924;2023-04-15T13:50:32;2.43;;;1.40;;
3133;SDS011;1577;49.912;10.924;2023-04-15T13:52:58;3.97;;;2.10;;
3133;SDS011;1577;49.912;10.924;2023-04-15T13:55:24;3.20;;;1.83;;
3133;SDS011;1577;49.912;10.924;2023-04-15T13:57:50;2.33;;;1.33;;
3133;SDS011;1577;49.912;10.924;2023-04-15T14:00:16;4.80;;;1.80;;
3133;SDS011;1577;49.912;10.924;2023-04-15T14:02:41;1.97;;;1.17;;
3133;SDS011;1577;49.912;10.924;2023-04-15T14:05:07;4.00;;;1.87;;
3133;SDS011;1577;49.912;10.924;2023-04-15T14:07:35;2.50;;;1.40;;
3133;SDS011;1577;49.912;10.924;2023-04-15T14:10:01;2.07;;;1.30;;
3133;SDS011;1577;49.912;10.924;2023-04-15T14:12:27;2.00;;;1.30;;
3133;SDS011;1577;49.912;10.924;2023-04-15T14:14:52;5.20;;;2.87;;
3133;SDS011;1577;49.912;10.924;2023-04-15T14:17:18;3.00;;;1.13;;
3133;SDS011;1577;49.912;10.924;2023-04-15T14:19:44;2.37;;;1.10;;
3133;SDS011;1577;49.912;10.924;2023-04-15T14:22:09;2.23;;;1.10;;
3133;SDS011;1577;49.912;10.924;2023-04-15T14:24:35;2.50;;;1.60;;
3133;SDS011;1577;49.912;10.924;2023-04-15T14:27:00;2.00;;;1.30;;
3133;SDS011;1577;49.912;10.924;2023-04-15T14:29:26;2.77;;;1.67;;
3133;SDS011;1577;49.912;10.924;2023-04-15T14:31:52;2.93;;;1.80;;
3133;SDS011;1577;49.912;10.924;2023-04-15T14:34:18;2.63;;;1.47;;
3133;SDS011;1577;49.912;10.924;2023-04-15T14:36:46;2.20;;;1.40;;
3133;SDS011;1577;49.912;10.924;2023-04-15T14:39:11;2.37;;;1.50;;
3133;SDS011;1577;49.912;10.924;2023-04-15T14:41:38;2.30;;;1.20;;
3133;SDS011;1577;49.912;10.924;2023-04-15T14:44:03;1.80;;;1.20;;
3133;SDS011;1577;49.912;10.924;2023-04-15T14:46:29;2.40;;;1.43;;
3133;SDS011;1577;49.912;10.924;2023-04-15T14:48:55;2.70;;;1.60;;
3133;SDS011;1577;49.912;10.924;2023-04-15T14:51:21;2.17;;;1.30;;
3133;SDS011;1577;49.912;10.924;2023-04-15T14:53:47;4.30;;;1.90;;
3133;SDS011;1577;49.912;10.924;2023-04-15T14:56:13;2.03;;;1.40;;
3133;SDS011;1577;49.912;10.924;2023-04-15T14:58:38;2.83;;;1.80;;
3133;SDS011;1577;49.912;10.924;2023-04-15T15:01:04;3.87;;;1.83;;
3133;SDS011;1577;49.912;10.924;2023-04-15T15:03:30;2.60;;;1.60;;